Time;durP1;ratioP1;P1;durP2;ratioP2;P2;SDS_P1;SDS_P2;PMS_P1;PMS_P2;Temp;Humidity;BMP_temperature;BMP_pressure;BME280_temperature;BME280_humidity;BME280_pressure;Samples;Min_cycle;Max_cycle;Signal;HPM_P1;HPM_P2
2023/01/06 00:01:21;;;;;;;3.23;2.27;;;;;;;6.52;100.00;97332.41;5091094;28;20585;-58
2023/01/06 00:03:49;;;;;;;2.23;2.07;;;;;;;6.57;100.00;97332.94;5090304;28;20229;-58
2023/01/06 00:06:15;;;;;;;2.10;1.90;;;;;;;6.52;100.00;97331.59;5090715;28;20278;-60
2023/01/06 00:08:43;;;;;;;2.20;2.10;;;;;;;6.38;100.00;97335.09;5092932;28;20231;-60
2023/01/06 00:11:11;;;;;;;1.97;1.87;;;;;;;6.34;100.00;97338.88;5094257;28;20215;-59
2023/01/06 00:13:38;;;;;;;1.83;1.73;;;;;;;6.29;100.00;97336.56;5095320;28;20201;-59
2023/01/06 00:16:06;;;;;;;2.77;2.10;;;;;;;6.29;100.00;97339.19;5094190;28;20216;-60
2023/01/06 00:18:32;;;;;;;2.17;2.07;;;;;;;6.26;100.00;97333.28;5094163;28;20229;-59
2023/01/06 00:20:59;;;;;;;2.50;2.30;;;;;;;6.29;100.00;97330.44;5094321;28;20198;-60
2023/01/06 00:23:26;;;;;;;2.30;2.20;;;;;;;6.25;100.00;97328.97;5094213;28;20209;-59
2023/01/06 00:25:54;;;;;;;2.60;2.40;;;;;;;6.17;100.00;97318.09;5093324;28;20205;-60
2023/01/06 00:28:20;;;;;;;3.23;2.33;;;;;;;6.14;100.00;97319.16;5094255;28;20217;-60
2023/01/06 00:30:47;;;;;;;4.30;2.67;;;;;;;6.10;100.00;97315.03;5093239;28;20198;-60
2023/01/06 00:33:13;;;;;;;5.67;2.70;;;;;;;6.14;100.00;97315.69;5093192;28;20202;-60
2023/01/06 00:35:40;;;;;;;3.33;3.10;;;;;;;6.16;100.00;97311.19;5093463;28;20206;-60
2023/01/06 00:38:06;;;;;;;5.50;3.20;;;;;;;6.17;100.00;97310.22;5093689;28;20544;-59
2023/01/06 00:40:33;;;;;;;5.10;3.30;;;;;;;6.21;100.00;97309.09;5093079;28;20209;-60
2023/01/06 00:43:01;;;;;;;5.10;3.40;;;;;;;6.12;100.00;97307.06;5093376;28;20205;-60
2023/01/06 00:45:27;;;;;;;5.87;3.30;;;;;;;6.11;100.00;97300.97;5092842;28;20233;-59
2023/01/06 00:47:54;;;;;;;3.50;3.23;;;;;;;6.10;100.00;97298.44;5093276;28;20205;-60
2023/01/06 00:50:21;;;;;;;3.47;3.27;;;;;;;6.10;100.00;97299.28;5093108;28;20297;-60
2023/01/06 00:52:47;;;;;;;3.53;3.23;;;;;;;6.07;100.00;97293.38;5092667;28;20209;-59
2023/01/06 00:55:15;;;;;;;3.80;3.50;;;;;;;6.00;100.00;97295.56;5092199;28;20205;-60
2023/01/06 00:57:41;;;;;;;4.10;3.80;;;;;;;6.07;100.00;97296.00;5092944;28;20198;-59
2023/01/06 01:00:10;;;;;;;4.90;3.53;;;;;;;6.05;100.00;97295.28;5092641;28;20233;-60
2023/01/06 01:02:37;;;;;;;4.27;3.60;;;;;;;6.01;100.00;97299.91;5092063;28;20201;-60
2023/01/06 01:05:04;;;;;;;3.73;3.43;;;;;;;6.09;100.00;97296.78;5092652;28;20232;-60
2023/01/06 01:07:30;;;;;;;4.23;3.93;;;;;;;6.10;100.00;97299.28;5092207;28;20216;-60
2023/01/06 01:09:57;;;;;;;4.90;3.77;;;;;;;6.02;100.00;97301.59;5092541;28;20209;-60
2023/01/06 01:12:23;;;;;;;4.30;3.90;;;;;;;5.98;100.00;97300.94;5092419;28;20223;-59
2023/01/06 01:14:51;;;;;;;3.70;3.50;;;;;;;5.92;100.00;97301.31;5092639;28;20213;-59
2023/01/06 01:17:21;;;;;;;3.93;3.60;;;;;;;5.88;100.00;97305.06;5092317;28;20657;-60
2023/01/06 01:19:49;;;;;;;3.90;3.60;;;;;;;5.84;100.00;97306.19;5092791;28;20202;-60
2023/01/06 01:22:16;;;;;;;4.57;4.23;;;;;;;5.92;100.00;97311.81;5092634;28;20281;-60
2023/01/06 01:24:42;;;;;;;5.33;3.90;;;;;;;5.88;100.00;97317.38;5091649;28;20692;-60
2023/01/06 01:27:09;;;;;;;4.37;3.97;;;;;;;5.92;100.00;97317.06;5091792;28;20209;-60
2023/01/06 01:29:36;;;;;;;3.77;3.53;;;;;;;5.90;100.00;97312.88;5092308;28;20284;-60
2023/01/06 01:32:03;;;;;;;4.33;3.87;;;;;;;5.89;100.00;97314.63;5092242;28;20213;-60
2023/01/06 01:34:31;;;;;;;3.67;3.37;;;;;;;5.95;100.00;97319.50;5092980;28;20205;-60
2023/01/06 01:36:57;;;;;;;3.80;3.60;;;;;;;5.98;100.00;97321.94;5091770;28;20202;-60
2023/01/06 01:39:26;;;;;;;3.70;3.50;;;;;;;6.04;100.00;97322.47;5091879;28;20205;-60
2023/01/06 01:41:53;;;;;;;4.00;3.70;;;;;;;6.11;100.00;97313.25;5091656;28;20198;-60
2023/01/06 01:44:59;;;;;;;4.77;3.53;;;;;;;6.14;100.00;97313.06;5092038;28;20279;-59
2023/01/06 01:47:43;;;;;;;3.23;3.03;;;;;;;6.17;100.00;97318.09;5095348;28;20733;-60
2023/01/06 01:50:20;;;;;;;4.10;3.70;;;;;;;6.21;100.00;97317.81;5094244;28;20205;-60
2023/01/06 01:52:50;;;;;;;3.50;3.30;;;;;;;6.25;100.00;97310.56;5097699;28;20204;-60
2023/01/06 01:55:16;;;;;;;3.67;3.37;;;;;;;6.33;100.00;97310.94;5097013;28;20210;-59
2023/01/06 01:57:46;;;;;;;4.23;3.80;;;;;;;6.34;100.00;97315.25;5093499;28;20201;-60
2023/01/06 02:00:13;;;;;;;6.60;4.60;;;;;;;6.39;100.00;97310.50;5091362;28;20237;-60
2023/01/06 02:02:40;;;;;;;7.87;5.97;;;;;;;6.44;100.00;97293.53;5091937;28;20197;-60
2023/01/06 02:05:07;;;;;;;11.10;6.97;;;;;;;6.51;100.00;97299.22;5091273;28;20236;-60
2023/01/06 02:07:35;;;;;;;17.13;7.10;;;;;;;6.58;100.00;97303.09;5091913;28;20205;-60
2023/01/06 02:10:08;;;;;;;14.57;7.00;;;;;;;6.59;100.00;97296.06;5090846;28;20205;-60
2023/01/06 02:12:34;;;;;;;19.80;7.93;;;;;;;6.62;100.00;97294.09;5091728;28;20197;-59
2023/01/06 02:15:01;;;;;;;26.80;8.30;;;;;;;6.65;100.00;97293.03;5091267;28;20533;-59
2023/01/06 02:17:46;;;;;;;31.90;7.87;;;;;;;6.66;100.00;97295.53;5091676;28;20213;-59
2023/01/06 02:20:41;;;;;;;7.00;6.40;;;;;;;6.68;100.00;97293.66;5091598;28;20258;-60
2023/01/06 02:23:30;;;;;;;13.13;6.83;;;;;;;6.58;100.00;97297.84;5091260;28;20194;-60
2023/01/06 02:26:44;;;;;;;26.30;7.93;;;;;;;6.48;100.00;97299.41;5090847;28;20216;-60
2023/01/06 02:29:33;;;;;;;9.27;6.80;;;;;;;6.42;100.00;97298.03;5090685;28;20208;-59
2023/01/06 02:32:09;;;;;;;6.63;5.90;;;;;;;6.46;100.00;97296.03;5091050;28;20206;-60
2023/01/06 02:34:46;;;;;;;8.03;6.60;;;;;;;6.46;100.00;97296.03;5091112;28;20203;-60
2023/01/06 02:37:22;;;;;;;9.50;6.93;;;;;;;6.52;100.00;97294.81;5091149;28;20204;-59
2023/01/06 02:39:57;;;;;;;11.17;6.63;;;;;;;6.56;100.00;97291.84;5090342;28;20544;-59
2023/01/06 02:42:30;;;;;;;17.03;6.87;;;;;;;6.57;100.00;97298.78;5091012;28;20653;-59
2023/01/06 02:45:03;;;;;;;18.33;7.00;;;;;;;6.56;100.00;97285.75;5091425;28;20209;-59
2023/01/06 02:47:34;;;;;;;20.20;7.20;;;;;;;6.58;100.00;97278.63;5091241;28;20233;-59
2023/01/06 02:50:10;;;;;;;30.47;8.10;;;;;;;6.56;100.00;97280.47;5091243;28;20276;-60
2023/01/06 02:52:42;;;;;;;29.13;7.67;;;;;;;6.52;100.00;97285.09;5091051;28;20194;-59
2023/01/06 02:55:12;;;;;;;41.20;9.50;;;;;;;6.53;100.00;97280.69;5090781;28;20216;-60
2023/01/06 02:57:42;;;;;;;22.40;8.17;;;;;;;6.51;100.00;97280.81;5090173;28;20642;-58
2023/01/06 03:00:12;;;;;;;11.77;7.60;;;;;;;6.50;100.00;97282.59;5090303;28;20237;-59
2023/01/06 03:02:42;;;;;;;10.23;8.03;;;;;;;6.47;100.00;97277.56;5090836;28;20216;-60
2023/01/06 03:05:10;;;;;;;24.50;8.17;;;;;;;6.41;100.00;97277.13;5090609;28;20228;-59
2023/01/06 03:07:38;;;;;;;21.73;8.27;;;;;;;6.42;100.00;97276.16;5090288;28;20658;-59
2023/01/06 03:10:05;;;;;;;16.60;7.73;;;;;;;6.41;100.00;97277.13;5089967;28;20202;-60
2023/01/06 03:12:36;;;;;;;14.90;7.63;;;;;;;6.43;100.00;97272.59;5090860;28;20630;-59
2023/01/06 03:15:03;;;;;;;14.63;8.13;;;;;;;6.43;100.00;97272.59;5090383;28;20202;-59
2023/01/06 03:17:29;;;;;;;7.93;7.23;;;;;;;6.43;100.00;97275.22;5090833;28;20213;-60
2023/01/06 03:19:57;;;;;;;30.93;9.17;;;;;;;6.38;100.00;97270.25;5090178;28;20202;-60
2023/01/06 03:22:24;;;;;;;31.57;7.50;;;;;;;6.41;100.00;97266.63;5091002;28;20201;-60
2023/01/06 03:24:52;;;;;;;39.93;7.73;;;;;;;6.38;100.00;97272.03;5089786;28;20229;-60
2023/01/06 03:27:21;;;;;;;20.47;7.30;;;;;;;6.41;100.00;97259.53;5089581;28;20537;-60
2023/01/06 03:29:48;;;;;;;24.97;8.20;;;;;;;6.41;100.00;97267.44;5090222;28;20202;-60
2023/01/06 03:32:20;;;;;;;8.60;7.67;;;;;;;6.40;100.00;97275.44;5090339;28;20206;-60
2023/01/06 03:35:03;;;;;;;14.17;7.90;;;;;;;6.41;100.00;97271.88;5090352;28;20637;-60
2023/01/06 03:37:32;;;;;;;19.13;7.90;;;;;;;6.35;100.00;97274.88;5090975;28;20197;-60
2023/01/06 03:40:04;;;;;;;12.87;8.10;;;;;;;6.34;100.00;97281.09;5090285;28;20216;-59
2023/01/06 03:45:40;;;;;;;28.93;8.73;;;;;;;6.39;100.00;97279.00;5094707;28;20217;-60
2023/01/06 03:48:11;;;;;;;7.87;7.07;;;;;;;6.37;100.00;97284.38;5095805;28;20198;-60
2023/01/06 03:50:43;;;;;;;35.77;8.97;;;;;;;6.30;100.00;97279.63;5098724;28;20233;-60
2023/01/06 03:53:17;;;;;;;13.40;7.97;;;;;;;6.34;100.00;97288.97;5100806;28;20208;-60
2023/01/06 03:55:47;;;;;;;8.50;7.80;;;;;;;6.28;100.00;97281.47;5101402;28;20284;-60
2023/01/06 03:58:15;;;;;;;22.43;8.20;;;;;;;6.28;100.00;97287.59;5102912;28;20194;-60
2023/01/06 04:00:42;;;;;;;51.20;10.40;;;;;;;6.27;100.00;97290.31;5098814;28;20428;-60
2023/01/06 04:03:12;;;;;;;37.70;9.30;;;;;;;6.18;100.00;97294.38;5096273;28;20615;-59
2023/01/06 04:05:40;;;;;;;46.20;9.03;;;;;;;6.25;100.00;97293.03;5095544;28;20287;-60
2023/01/06 04:08:06;;;;;;;51.73;9.77;;;;;;;6.20;100.00;97286.41;5095548;28;20525;-60
2023/01/06 04:10:33;;;;;;;14.23;7.27;;;;;;;6.25;100.00;97293.03;5092756;28;20649;-60
2023/01/06 04:12:59;;;;;;;23.87;8.30;;;;;;;6.23;100.00;97294.09;5094237;28;20206;-59
2023/01/06 04:15:28;;;;;;;30.20;8.00;;;;;;;6.16;100.00;97287.56;5093755;28;20812;-59
2023/01/06 04:17:54;;;;;;;16.70;7.80;;;;;;;6.19;100.00;97279.47;5093675;28;20541;-60
2023/01/06 04:20:23;;;;;;;32.47;8.60;;;;;;;6.19;100.00;97288.19;5093627;28;20209;-60
2023/01/06 04:22:53;;;;;;;44.50;9.63;;;;;;;6.19;100.00;97284.72;5093772;28;20213;-60
2023/01/06 04:25:19;;;;;;;32.43;8.70;;;;;;;6.18;100.00;97286.50;5093148;28;20226;-60
2023/01/06 04:27:46;;;;;;;8.10;7.30;;;;;;;6.25;100.00;97293.03;5093317;28;20206;-60
2023/01/06 04:30:12;;;;;;;26.60;8.87;;;;;;;6.17;100.00;97284.81;5093380;28;20205;-59
2023/01/06 04:32:39;;;;;;;26.63;8.77;;;;;;;6.13;100.00;97288.56;5093515;28;20289;-60
2023/01/06 04:35:06;;;;;;;9.70;7.20;;;;;;;6.19;100.00;97287.34;5093672;28;20194;-60
2023/01/06 04:37:33;;;;;;;7.53;6.80;;;;;;;6.21;100.00;97291.56;5093088;28;20201;-59
2023/01/06 04:40:01;;;;;;;16.93;8.20;;;;;;;6.17;100.00;97291.84;5092948;28;20202;-59
2023/01/06 04:42:28;;;;;;;29.77;9.43;;;;;;;6.14;100.00;97290.28;5093642;28;20206;-60
2023/01/06 04:44:54;;;;;;;30.57;9.07;;;;;;;6.17;100.00;97287.44;5093111;28;20213;-60
2023/01/06 04:47:21;;;;;;;16.50;8.33;;;;;;;6.23;100.00;97291.47;5093490;28;20545;-60
2023/01/06 04:49:47;;;;;;;20.93;9.10;;;;;;;6.28;100.00;97292.00;5093527;28;20205;-60
2023/01/06 04:52:14;;;;;;;24.83;9.63;;;;;;;6.28;100.00;97292.00;5092545;28;20870;-60
2023/01/06 04:54:40;;;;;;;16.77;9.43;;;;;;;6.28;100.00;97287.59;5092385;28;20624;-59
2023/01/06 04:57:08;;;;;;;16.57;8.43;;;;;;;6.34;100.00;97291.59;5092604;28;20205;-60
2023/01/06 04:59:34;;;;;;;22.53;9.40;;;;;;;6.33;100.00;97297.78;5092389;28;20676;-60
2023/01/06 05:02:01;;;;;;;18.80;9.20;;;;;;;6.33;100.00;97288.13;5092273;28;21430;-60
2023/01/06 05:04:27;;;;;;;10.13;9.13;;;;;;;6.45;100.00;97291.72;5092787;28;20206;-59
2023/01/06 05:06:54;;;;;;;16.27;9.17;;;;;;;6.38;100.00;97293.91;5092876;28;20221;-60
2023/01/06 05:09:20;;;;;;;10.60;9.50;;;;;;;6.47;100.00;97297.72;5092172;28;20646;-59
2023/01/06 05:11:47;;;;;;;11.37;10.27;;;;;;;6.47;100.00;97301.19;5092501;28;20211;-60
2023/01/06 05:14:15;;;;;;;18.00;11.27;;;;;;;6.49;100.00;97299.28;5091535;28;20198;-60
2023/01/06 05:16:41;;;;;;;15.23;10.70;;;;;;;6.48;100.00;97309.94;5092035;28;20194;-60
2023/01/06 05:19:08;;;;;;;11.80;10.53;;;;;;;6.52;100.00;97311.38;5092346;28;20213;-60
2023/01/06 05:21:34;;;;;;;12.40;11.20;;;;;;;6.56;100.00;97314.63;5092428;28;20212;-59
2023/01/06 05:24:01;;;;;;;11.93;10.77;;;;;;;6.60;100.00;97314.34;5091907;28;20208;-60
2023/01/06 05:26:28;;;;;;;12.73;11.53;;;;;;;6.67;100.00;97304.25;5091714;28;20688;-59
2023/01/06 05:28:55;;;;;;;12.47;11.27;;;;;;;6.71;100.00;97311.00;5092732;28;20214;-59
2023/01/06 05:31:23;;;;;;;11.77;10.57;;;;;;;6.71;100.00;97314.47;5092126;28;20206;-59
2023/01/06 05:33:49;;;;;;;12.37;11.17;;;;;;;6.70;100.00;97307.53;5091991;28;20208;-60
2023/01/06 05:36:17;;;;;;;11.93;10.73;;;;;;;6.72;100.00;97305.66;5091964;28;20238;-59
2023/01/06 05:38:44;;;;;;;13.03;11.57;;;;;;;6.73;100.00;97309.94;5092314;28;20205;-60
2023/01/06 05:41:10;;;;;;;12.57;11.37;;;;;;;6.70;100.00;97312.78;5091272;28;20206;-59
2023/01/06 05:43:38;;;;;;;12.67;11.37;;;;;;;6.72;100.00;97308.28;5092220;28;20202;-60
2023/01/06 05:46:06;;;;;;;12.13;10.90;;;;;;;6.77;100.00;97319.31;5091931;28;20221;-62
2023/01/06 05:48:34;;;;;;;13.30;11.90;;;;;;;6.80;100.00;97315.66;5092452;28;20213;-62
2023/01/06 05:51:02;;;;;;;14.40;13.00;;;;;;;6.80;100.00;97316.47;5091816;28;20205;-61
2023/01/06 05:53:31;;;;;;;15.13;13.57;;;;;;;6.80;100.00;97323.53;5092176;28;20275;-61
2023/01/06 05:55:59;;;;;;;13.93;12.63;;;;;;;6.87;100.00;97332.69;5090840;28;20614;-61
2023/01/06 05:58:26;;;;;;;16.00;14.27;;;;;;;6.85;100.00;97334.56;5091588;28;20206;-60
2023/01/06 06:00:52;;;;;;;13.97;12.47;;;;;;;6.86;100.00;97334.47;5091600;28;20230;-60
2023/01/06 06:03:19;;;;;;;13.10;11.80;;;;;;;6.88;100.00;97340.47;5091154;28;20736;-60
2023/01/06 06:05:50;;;;;;;15.93;12.30;;;;;;;6.88;100.00;97335.22;5090792;28;20248;-59
2023/01/06 06:08:16;;;;;;;12.97;11.67;;;;;;;6.92;100.00;97339.31;5091804;28;20204;-59
2023/01/06 06:10:43;;;;;;;13.77;12.13;;;;;;;6.95;100.00;97341.72;5091329;28;20205;-59
2023/01/06 06:13:09;;;;;;;13.27;11.97;;;;;;;7.01;100.00;97338.69;5091242;28;20213;-59
2023/01/06 06:15:36;;;;;;;12.63;11.50;;;;;;;7.03;100.00;97340.38;5091023;28;20201;-59
2023/01/06 06:18:03;;;;;;;12.97;11.77;;;;;;;7.07;100.00;97339.22;5091538;28;20202;-59
2023/01/06 06:20:30;;;;;;;13.80;12.40;;;;;;;6.98;100.00;97340.69;5091600;28;20209;-59
2023/01/06 06:22:57;;;;;;;13.07;11.73;;;;;;;6.98;100.00;97340.69;5090634;28;20232;-59
2023/01/06 06:25:24;;;;;;;12.97;10.97;;;;;;;7.03;100.00;97337.75;5091141;28;20202;-58
2023/01/06 06:27:51;;;;;;;13.67;12.30;;;;;;;7.06;100.00;97346.25;5091202;28;20252;-59
2023/01/06 06:30:17;;;;;;;15.10;13.23;;;;;;;7.08;100.00;97343.53;5091236;28;20212;-59
2023/01/06 06:32:44;;;;;;;13.93;12.53;;;;;;;7.06;100.00;97335.75;5090803;28;20198;-59
2023/01/06 06:35:10;;;;;;;13.17;11.83;;;;;;;7.12;100.00;97337.13;5091297;28;20511;-59
2023/01/06 06:37:37;;;;;;;13.73;12.23;;;;;;;7.12;100.00;97343.22;5090949;28;20580;-58
2023/01/06 06:40:06;;;;;;;12.47;11.37;;;;;;;7.11;100.00;97338.06;5090920;28;20545;-59
2023/01/06 06:42:33;;;;;;;12.80;11.50;;;;;;;7.17;100.00;97340.28;5091268;28;20201;-59
2023/01/06 06:44:59;;;;;;;12.07;10.87;;;;;;;7.20;100.00;97334.78;5091212;28;20194;-60
2023/01/06 06:47:26;;;;;;;11.57;10.47;;;;;;;7.21;100.00;97334.69;5091549;28;20225;-57
2023/01/06 06:49:52;;;;;;;11.80;10.80;;;;;;;7.20;100.00;97332.16;5090959;28;20209;-59
2023/01/06 06:52:19;;;;;;;11.47;10.37;;;;;;;7.21;100.00;97341.75;5091127;28;20201;-58
2023/01/06 06:54:45;;;;;;;11.60;10.70;;;;;;;7.25;100.00;97337.97;5091153;28;20206;-59
2023/01/06 06:57:13;;;;;;;9.63;8.73;;;;;;;7.23;100.00;97339.84;5091129;28;20204;-59
2023/01/06 06:59:39;;;;;;;9.23;8.43;;;;;;;7.19;100.00;97338.41;5091411;28;20244;-58
2023/01/06 07:02:06;;;;;;;9.07;8.27;;;;;;;7.19;100.00;97341.84;5091147;28;20197;-59
2023/01/06 07:04:32;;;;;;;7.93;7.33;;;;;;;7.22;100.00;97332.91;5091325;28;20206;-59
2023/01/06 07:06:59;;;;;;;7.80;7.10;;;;;;;7.18;100.00;97342.81;5091319;28;20222;-59
2023/01/06 07:09:25;;;;;;;7.60;6.93;;;;;;;7.20;100.00;97340.06;5091542;28;20205;-59
2023/01/06 07:11:52;;;;;;;8.07;7.37;;;;;;;7.16;100.00;97339.44;5092222;28;20212;-57
2023/01/06 07:14:20;;;;;;;7.80;7.20;;;;;;;7.17;100.00;97337.63;5092469;28;20208;-57
2023/01/06 07:16:46;;;;;;;7.30;6.43;;;;;;;7.21;100.00;97332.06;5093797;28;20200;-57
2023/01/06 07:19:13;;;;;;;7.00;6.40;;;;;;;7.22;100.00;97327.66;5096190;28;20526;-57
2023/01/06 07:21:39;;;;;;;7.10;6.50;;;;;;;7.27;100.00;97320.28;5095663;28;20209;-58
2023/01/06 07:24:06;;;;;;;7.77;7.07;;;;;;;7.27;100.00;97322.91;5095283;28;20202;-58
2023/01/06 07:26:33;;;;;;;8.70;7.90;;;;;;;7.27;100.00;97315.00;5096108;28;20253;-58
2023/01/06 07:28:59;;;;;;;8.03;7.33;;;;;;;7.26;100.00;97318.63;5097297;28;20209;-57
2023/01/06 07:31:27;;;;;;;8.00;7.20;;;;;;;7.27;100.00;97315.84;5079480;28;20240;-59
2023/01/06 07:33:53;;;;;;;7.23;6.63;;;;;;;7.26;100.00;97319.44;5076881;28;20198;-56
2023/01/06 07:36:20;;;;;;;7.83;7.13;;;;;;;7.31;100.00;97321.75;5075457;28;20194;-62
2023/01/06 07:38:46;;;;;;;7.80;7.10;;;;;;;7.28;100.00;97325.44;5077560;28;20646;-58
2023/01/06 07:41:13;;;;;;;7.33;6.63;;;;;;;7.31;100.00;97327.00;5076561;28;20202;-59
2023/01/06 07:43:39;;;;;;;7.60;6.87;;;;;;;7.31;100.00;97337.53;5078499;28;20208;-59
2023/01/06 07:46:06;;;;;;;7.00;6.30;;;;;;;7.34;100.00;97347.84;5076969;28;20223;-59
2023/01/06 07:48:34;;;;;;;7.20;6.60;;;;;;;7.34;100.00;97338.16;5079673;28;20210;-58
2023/01/06 07:51:02;;;;;;;6.23;5.73;;;;;;;7.39;100.00;97343.13;5076022;28;20202;-58
2023/01/06 07:53:28;;;;;;;7.17;6.47;;;;;;;7.35;100.00;97349.53;5074579;28;20275;-57
2023/01/06 07:55:55;;;;;;;6.83;6.23;;;;;;;7.40;100.00;97357.97;5072186;28;20234;-57
2023/01/06 07:58:23;;;;;;;7.20;6.57;;;;;;;7.45;100.00;97358.47;5071999;28;20214;-59
2023/01/06 08:00:50;;;;;;;7.67;6.93;;;;;;;7.48;100.00;97358.25;5069317;28;20268;-57
2023/01/06 08:03:16;;;;;;;7.60;6.90;;;;;;;7.49;100.00;97362.56;5074230;28;20206;-58
2023/01/06 08:05:44;;;;;;;7.30;6.67;;;;;;;7.53;100.00;97353.53;5075005;28;20218;-58
2023/01/06 08:08:12;;;;;;;7.87;7.20;;;;;;;7.50;100.00;97356.38;5075087;28;20202;-57
2023/01/06 08:10:39;;;;;;;7.37;6.70;;;;;;;7.52;100.00;97351.84;5072063;28;20286;-58
2023/01/06 08:13:06;;;;;;;7.77;7.00;;;;;;;7.48;100.00;97345.94;5074087;28;20198;-57
2023/01/06 08:15:32;;;;;;;7.73;7.03;;;;;;;7.57;100.00;97364.69;5073180;28;20214;-58
2023/01/06 08:17:59;;;;;;;8.33;7.57;;;;;;;7.51;100.00;97356.25;5073664;28;20195;-58
2023/01/06 08:20:25;;;;;;;8.17;7.07;;;;;;;7.56;100.00;97358.56;5071797;28;20225;-58
2023/01/06 08:22:53;;;;;;;8.50;7.70;;;;;;;7.63;100.00;97359.81;5073910;28;21552;-58
2023/01/06 08:25:20;;;;;;;8.37;7.57;;;;;;;7.66;100.00;97364.88;5070519;28;20215;-58
2023/01/06 08:27:46;;;;;;;7.97;7.27;;;;;;;7.69;100.00;97364.66;5072365;28;20226;-57
2023/01/06 08:30:15;;;;;;;8.73;7.97;;;;;;;7.68;100.00;97365.63;5071824;28;20631;-59
2023/01/06 08:32:41;;;;;;;8.73;7.87;;;;;;;7.70;100.00;97365.50;5073778;28;20264;-59
2023/01/06 08:35:08;;;;;;;9.40;8.40;;;;;;;7.70;100.00;97362.88;5072563;28;20209;-59
2023/01/06 08:37:35;;;;;;;9.10;8.00;;;;;;;7.74;100.00;97362.56;5073577;28;20226;-58
2023/01/06 08:40:04;;;;;;;8.67;7.87;;;;;;;7.76;100.00;97367.72;5072244;28;20202;-58
2023/01/06 08:42:30;;;;;;;8.90;8.13;;;;;;;7.77;100.00;97369.38;5073220;28;20208;-59
2023/01/06 08:44:57;;;;;;;8.90;8.03;;;;;;;7.83;100.00;97372.41;5071601;28;20202;-58
2023/01/06 08:47:24;;;;;;;8.90;8.10;;;;;;;7.85;100.00;97380.22;5073101;28;20218;-58
2023/01/06 08:49:50;;;;;;;7.80;7.10;;;;;;;7.91;100.00;97377.16;5072899;28;20203;-58
2023/01/06 08:52:17;;;;;;;8.60;7.73;;;;;;;7.95;100.00;97382.09;5072829;28;20195;-58
2023/01/06 08:54:43;;;;;;;11.57;8.50;;;;;;;8.00;100.00;97380.00;5071608;28;20201;-58
2023/01/06 08:57:11;;;;;;;9.70;8.23;;;;;;;8.05;100.00;97377.00;5072960;28;20535;-58
2023/01/06 08:59:38;;;;;;;10.20;9.10;;;;;;;8.08;100.00;97382.06;5072849;28;20589;-58
2023/01/06 09:02:04;;;;;;;9.20;8.00;;;;;;;8.13;100.00;97384.38;5072900;28;20202;-58
2023/01/06 09:04:31;;;;;;;11.27;8.87;;;;;;;8.14;100.00;97388.69;5072685;28;20208;-58
2023/01/06 09:06:57;;;;;;;9.33;8.33;;;;;;;8.23;100.00;97390.66;5072272;28;20229;-59
2023/01/06 09:09:24;;;;;;;9.57;8.00;;;;;;;8.23;100.00;97403.81;5072356;28;20215;-59
2023/01/06 09:11:50;;;;;;;9.47;7.90;;;;;;;8.29;100.00;97403.44;5072107;28;20222;-58
2023/01/06 09:14:18;;;;;;;9.40;7.90;;;;;;;8.33;100.00;97396.97;5072844;28;20203;-59
2023/01/06 09:16:46;;;;;;;8.90;7.53;;;;;;;8.35;100.00;97405.63;5072377;28;20203;-57
2023/01/06 09:19:13;;;;;;;7.93;6.97;;;;;;;8.36;100.00;97397.59;5070433;28;20302;-58
2023/01/06 09:21:41;;;;;;;8.13;7.33;;;;;;;8.40;100.00;97395.56;5070875;28;20190;-58
2023/01/06 09:24:12;;;;;;;7.37;6.67;;;;;;;8.46;100.00;97397.78;5069839;28;20203;-58
2023/01/06 09:26:39;;;;;;;8.33;7.43;;;;;;;8.50;100.00;97404.53;5070227;28;20214;-58
2023/01/06 09:29:06;;;;;;;9.87;8.87;;;;;;;8.55;100.00;97405.00;5072769;28;20217;-59
2023/01/06 09:31:34;;;;;;;12.30;10.40;;;;;;;8.59;100.00;97409.09;5073416;28;20194;-58
2023/01/06 09:34:00;;;;;;;8.17;6.43;;;;;;;8.58;100.00;97407.41;5073787;28;20203;-59
2023/01/06 09:36:27;;;;;;;7.53;6.73;;;;;;;8.56;100.00;97414.59;5078771;28;20251;-58
2023/01/06 09:38:53;;;;;;;7.90;6.67;;;;;;;8.63;100.00;97415.00;5088540;28;20273;-57
2023/01/06 09:41:32;;;;;;;7.03;6.33;;;;;;;8.64;100.00;97400.88;5085266;28;20206;-58
2023/01/06 09:44:02;;;;;;;7.07;6.37;;;;;;;8.65;100.00;97419.19;5084684;28;20197;-57
2023/01/06 09:46:31;;;;;;;7.47;5.90;;;;;;;8.79;100.00;97416.38;5086624;28;20189;-57
2023/01/06 09:49:12;;;;;;;6.47;5.67;;;;;;;8.77;100.00;97422.75;5084921;28;20207;-56
2023/01/06 09:51:38;;;;;;;6.30;5.77;;;;;;;8.76;100.00;97416.63;5092497;28;20186;-58
2023/01/06 09:54:12;;;;;;;6.63;6.00;;;;;;;8.76;100.00;97424.53;5079091;28;20209;-59
2023/01/06 09:56:42;;;;;;;5.80;5.20;;;;;;;8.84;100.00;97419.53;5074755;28;20206;-59
2023/01/06 09:59:14;;;;;;;8.43;7.63;;;;;;;8.93;100.00;97418.84;5073590;28;20939;-58
2023/01/06 10:01:45;;;;;;;8.63;7.37;;;;;;;8.96;100.00;97426.53;5074149;28;20202;-58
2023/01/06 10:04:17;;;;;;;7.10;6.40;;;;;;;8.95;100.00;97421.38;5074739;28;20296;-57
2023/01/06 10:06:46;;;;;;;6.87;6.17;;;;;;;9.00;100.00;97430.63;5073775;28;20655;-58
2023/01/06 10:09:22;;;;;;;6.67;6.07;;;;;;;9.05;100.00;97425.00;5071309;28;20203;-58
2023/01/06 10:11:58;;;;;;;7.80;7.00;;;;;;;9.09;100.00;97418.56;5071643;28;20202;-57
2023/01/06 10:14:37;;;;;;;6.17;5.57;;;;;;;9.16;100.00;97427.69;5070646;28;20264;-59
2023/01/06 10:17:16;;;;;;;5.73;5.30;;;;;;;9.18;100.00;97428.41;5071137;28;20205;-57
2023/01/06 10:19:54;;;;;;;6.43;5.83;;;;;;;9.24;100.00;97422.69;5073466;28;20195;-58
2023/01/06 10:22:28;;;;;;;6.23;5.70;;;;;;;9.22;100.00;97418.47;5073222;28;20220;-57
2023/01/06 10:25:02;;;;;;;6.13;5.53;;;;;;;9.10;100.00;97424.69;5072868;28;20198;-57
2023/01/06 10:27:35;;;;;;;6.23;5.63;;;;;;;9.18;100.00;97419.66;5072847;28;20214;-58
2023/01/06 10:30:03;;;;;;;7.33;5.90;;;;;;;9.17;100.00;97417.97;5073230;28;20195;-58
2023/01/06 10:32:32;;;;;;;6.43;5.37;;;;;;;9.14;100.00;97418.22;5073502;28;20222;-58
2023/01/06 10:35:00;;;;;;;6.20;5.60;;;;;;;9.11;100.00;97411.34;5071572;28;20631;-58
2023/01/06 10:37:32;;;;;;;6.80;6.20;;;;;;;9.18;100.00;97417.00;5073772;28;20199;-58
2023/01/06 10:40:06;;;;;;;6.70;6.10;;;;;;;9.13;100.00;97403.34;5071812;28;20213;-57
2023/01/06 10:42:59;;;;;;;6.17;5.67;;;;;;;9.15;100.00;97410.16;5071593;28;20646;-58
2023/01/06 10:45:28;;;;;;;6.27;5.67;;;;;;;9.20;100.00;97401.91;5070308;28;20207;-58
2023/01/06 10:47:55;;;;;;;5.63;5.13;;;;;;;9.25;100.00;97410.31;5069797;28;20238;-58
2023/01/06 10:50:24;;;;;;;5.87;5.37;;;;;;;9.28;100.00;97404.81;5068878;28;20658;-58
2023/01/06 10:52:50;;;;;;;5.90;5.43;;;;;;;9.23;100.00;97410.44;5069362;28;20206;-57
2023/01/06 10:55:29;;;;;;;5.20;4.73;;;;;;;9.34;100.00;97407.84;5070583;28;20231;-59
2023/01/06 10:58:00;;;;;;;5.30;4.87;;;;;;;9.31;100.00;97401.94;5071103;28;20627;-58
2023/01/06 11:00:27;;;;;;;6.03;5.43;;;;;;;9.28;100.00;97397.72;5069357;28;20237;-58
2023/01/06 11:02:55;;;;;;;5.80;5.30;;;;;;;9.19;100.00;97400.22;5071466;28;20210;-58
2023/01/06 11:05:25;;;;;;;4.93;4.53;;;;;;;9.18;100.00;97395.91;5070120;28;20195;-59
2023/01/06 11:07:57;;;;;;;5.90;5.40;;;;;;;9.11;100.00;97400.78;5069474;28;20666;-58
2023/01/06 11:10:30;;;;;;;5.50;5.00;;;;;;;9.06;100.00;97391.56;5073227;28;20199;-59
2023/01/06 11:12:59;;;;;;;5.27;4.77;;;;;;;9.10;100.00;97393.88;5072936;28;20260;-58
2023/01/06 11:15:31;;;;;;;5.40;5.00;;;;;;;9.17;100.00;97389.81;5071588;28;20282;-58
2023/01/06 11:17:58;;;;;;;5.33;4.93;;;;;;;9.21;100.00;97395.69;5073468;28;21477;-59
2023/01/06 11:20:31;;;;;;;4.87;4.47;;;;;;;9.27;100.00;97388.13;5072225;28;20206;-58
2023/01/06 11:23:13;;;;;;;5.23;4.73;;;;;;;9.26;100.00;97385.59;5072277;28;20199;-58
2023/01/06 11:25:40;;;;;;;5.43;4.93;;;;;;;9.27;100.00;97382.00;5072282;28;20572;-59
2023/01/06 11:28:16;;;;;;;4.93;4.53;;;;;;;9.31;100.00;97375.56;5070143;28;20245;-56
2023/01/06 11:30:49;;;;;;;5.17;4.77;;;;;;;9.39;100.00;97387.19;5070468;28;20213;-58
2023/01/06 11:33:17;;;;;;;5.60;3.77;;;;;;;9.47;100.00;97382.16;5070534;28;20195;-58
2023/01/06 11:35:47;;;;;;;4.60;4.20;;;;;;;9.52;100.00;97383.63;5070378;28;20246;-57
2023/01/06 11:38:15;;;;;;;5.27;4.77;;;;;;;9.54;100.00;97385.16;5070388;28;20225;-57
2023/01/06 11:40:43;;;;;;;5.83;5.23;;;;;;;9.61;100.00;97378.44;5077405;28;20191;-57